Time;durP1;ratioP1;P1;durP2;ratioP2;P2;SDS_P1;SDS_P2;PMS_P1;PMS_P2;Temp;Humidity;BMP_temperature;BMP_pressure;BME280_temperature;BME280_humidity;BME280_pressure;Samples;Min_cycle;Max_cycle;Signal;HPM_P1;HPM_P2
2022/01/16 00:00:53;;;;;;;65.00;20.90;;;-0.70;99.90;;;;;;4376450;28;660061;-75
2022/01/16 00:06:47;;;;;;;57.93;19.70;;;-0.60;99.90;;;;;;4357659;28;659222;-75
2022/01/16 00:09:35;;;;;;;57.83;19.67;;;-0.60;99.90;;;;;;4357515;28;659159;-75
2022/01/16 00:12:23;;;;;;;48.63;15.50;;;-0.70;99.90;;;;;;4375311;28;659044;-74
2022/01/16 00:15:12;;;;;;;58.38;20.60;;;-0.70;99.90;;;;;;4356975;28;658759;-74
2022/01/16 00:18:09;;;;;;;73.73;20.67;;;-0.70;99.90;;;;;;4357229;28;659060;-75
2022/01/16 00:20:57;;;;;;;61.77;20.53;;;-0.70;99.90;;;;;;4332053;28;658631;-74
2022/01/16 00:23:46;;;;;;;59.23;18.60;;;-0.70;99.90;;;;;;4372484;28;658581;-75
2022/01/16 00:26:35;;;;;;;63.90;19.83;;;-0.60;99.90;;;;;;4375403;28;659522;-74
2022/01/16 00:29:23;;;;;;;66.57;21.37;;;-0.60;99.90;;;;;;4353826;28;659960;-74
2022/01/16 00:32:10;;;;;;;65.67;20.07;;;-0.60;99.90;;;;;;4356784;28;658666;-74
2022/01/16 00:34:58;;;;;;;61.53;21.57;;;-0.50;99.90;;;;;;4375701;28;658983;-75
2022/01/16 00:37:47;;;;;;;61.20;21.80;;;-0.50;99.90;;;;;;4357176;28;659053;-75
2022/01/16 00:40:36;;;;;;;66.67;21.60;;;-0.50;99.90;;;;;;4370677;28;658672;-75
2022/01/16 00:43:23;;;;;;;64.00;22.87;;;-0.50;99.90;;;;;;4380148;28;658308;-75
2022/01/16 00:46:11;;;;;;;67.00;22.87;;;-0.40;99.90;;;;;;4357091;28;658839;-75
2022/01/16 00:48:59;;;;;;;64.83;21.77;;;-0.40;99.90;;;;;;4376010;28;658556;-74
2022/01/16 00:51:46;;;;;;;70.97;22.77;;;-0.40;99.90;;;;;;4353250;28;660471;-75
2022/01/16 00:54:34;;;;;;;68.93;22.90;;;-0.40;99.90;;;;;;4374042;28;658694;-75
2022/01/16 00:57:23;;;;;;;66.37;23.67;;;-0.50;99.90;;;;;;4375416;28;659452;-74
2022/01/16 01:00:12;;;;;;;61.93;23.40;;;-0.60;99.90;;;;;;4358175;28;658428;-75
2022/01/16 01:03:00;;;;;;;61.27;23.67;;;-0.60;99.90;;;;;;4366345;28;658250;-74
2022/01/16 01:05:47;;;;;;;63.33;23.70;;;-0.60;99.90;;;;;;4375186;28;659869;-74
2022/01/16 01:08:35;;;;;;;65.78;24.10;;;-0.70;99.90;;;;;;4355718;28;658328;-75
2022/01/16 01:11:26;;;;;;;62.50;22.17;;;-0.70;99.90;;;;;;4379501;28;659632;-75
2022/01/16 01:14:23;;;;;;;55.43;21.20;;;-0.80;99.90;;;;;;4375118;28;658823;-75
2022/01/16 01:17:20;;;;;;;58.43;21.20;;;-0.90;99.90;;;;;;4356198;28;658536;-74
2022/01/16 01:20:09;;;;;;;61.57;20.00;;;-1.00;99.90;;;;;;4352851;28;659651;-74
2022/01/16 01:22:56;;;;;;;70.50;21.53;;;-1.10;99.90;;;;;;4352963;28;659466;-75
2022/01/16 01:25:44;;;;;;;57.27;20.67;;;-1.20;99.90;;;;;;4375216;28;659117;-74
2022/01/16 01:28:31;;;;;;;56.80;20.83;;;-1.30;99.90;;;;;;4353006;28;660125;-74
2022/01/16 01:31:20;;;;;;;59.63;20.70;;;-1.30;99.90;;;;;;4379036;28;658405;-76
2022/01/16 01:34:08;;;;;;;53.75;19.88;;;-1.40;99.90;;;;;;4356052;28;659278;-75
2022/01/16 01:36:56;;;;;;;62.80;19.93;;;-1.50;99.90;;;;;;4356544;28;658598;-75
2022/01/16 01:39:43;;;;;;;61.20;20.60;;;-1.60;99.90;;;;;;4375071;28;658274;-76
2022/01/16 01:42:34;;;;;;;50.93;19.60;;;-1.70;99.90;;;;;;4356241;28;659472;-76
2022/01/16 01:51:50;;;;;;;65.37;20.77;;;-2.00;99.90;;;;;;4355883;28;658710;-76
2022/01/16 01:54:37;;;;;;;57.07;20.30;;;-2.00;99.90;;;;;;4375610;28;659985;-76
2022/01/16 01:57:25;;;;;;;59.60;20.03;;;-2.00;99.90;;;;;;4356269;28;658563;-76
2022/01/16 02:00:17;;;;;;;61.00;20.80;;;-2.10;99.90;;;;;;4377045;28;658201;-76
2022/01/16 02:03:13;;;;;;;53.50;20.13;;;-2.20;99.90;;;;;;4355665;28;658913;-76
2022/01/16 02:06:02;;;;;;;61.53;22.23;;;-2.30;99.90;;;;;;4351830;28;658818;-76
2022/01/16 02:08:51;;;;;;;60.93;20.60;;;-2.30;99.90;;;;;;4356324;28;658506;-77
2022/01/16 02:11:39;;;;;;;59.97;21.00;;;-2.40;99.90;;;;;;4378608;28;658362;-76
2022/01/16 02:14:30;;;;;;;73.90;21.87;;;-2.40;99.90;;;;;;4351978;28;659540;-76
2022/01/16 02:33:00;;;;;;;59.85;20.05;;;-2.80;99.90;;;;;;4281036;28;659770;-76
2022/01/16 02:35:50;;;;;;;67.23;20.70;;;-2.90;99.90;;;;;;4307671;28;659439;-76
2022/01/16 02:38:41;;;;;;;58.10;20.00;;;-2.90;99.90;;;;;;4307512;29;659344;-76
2022/01/16 02:41:29;;;;;;;65.13;21.30;;;-2.90;99.90;;;;;;4303437;29;659063;-76
2022/01/16 02:44:21;;;;;;;54.60;21.90;;;-2.90;99.90;;;;;;4303698;28;660407;-76
2022/01/16 02:47:10;;;;;;;67.40;22.57;;;-2.90;99.90;;;;;;4303213;29;658578;-76
2022/01/16 02:50:00;;;;;;;81.63;25.27;;;-2.90;99.90;;;;;;4303686;29;658924;-76
2022/01/16 02:52:47;;;;;;;74.30;23.07;;;-2.90;99.90;;;;;;4304174;29;659579;-76
2022/01/16 02:55:40;;;;;;;76.33;25.37;;;-3.00;99.90;;;;;;4307193;29;659162;-76
2022/01/16 02:58:27;;;;;;;87.87;28.90;;;-3.00;99.90;;;;;;4302965;29;659594;-76
2022/01/16 03:01:15;;;;;;;71.80;24.73;;;-3.00;99.90;;;;;;4330752;28;659036;-77
2022/01/16 03:04:02;;;;;;;78.73;27.00;;;-3.00;99.90;;;;;;4362432;28;659332;-76
2022/01/16 03:06:50;;;;;;;67.13;22.47;;;-3.00;99.90;;;;;;4340917;28;659065;-76
2022/01/16 03:09:54;;;;;;;68.73;22.10;;;-3.00;99.90;;;;;;4359894;28;659694;-76
2022/01/16 03:12:45;;;;;;;55.17;21.27;;;-3.00;99.90;;;;;;4339363;28;659380;-76
2022/01/16 03:15:32;;;;;;;67.03;22.03;;;-3.10;99.90;;;;;;4343812;28;659817;-75
2022/01/16 03:24:32;;;;;;;71.00;24.25;;;-3.30;99.90;;;;;;4343366;28;659304;-76
2022/01/16 03:27:20;;;;;;;85.00;27.33;;;-3.30;99.90;;;;;;4348706;28;659814;-76
2022/01/16 03:30:12;;;;;;;112.63;33.53;;;-3.40;99.90;;;;;;4364586;28;659912;-76
2022/01/16 03:33:00;;;;;;;205.53;37.53;;;-3.30;99.90;;;;;;4358940;28;660095;-76
2022/01/16 03:35:47;;;;;;;112.43;33.53;;;-3.30;99.90;;;;;;4357204;28;661256;-76
2022/01/16 03:38:37;;;;;;;104.78;32.08;;;-3.40;99.90;;;;;;4347365;28;660117;-76
2022/01/16 03:41:28;;;;;;;103.53;33.87;;;-3.40;99.90;;;;;;4357456;28;660295;-76
2022/01/16 03:44:15;;;;;;;94.60;30.15;;;-3.50;99.90;;;;;;4342031;28;660045;-75
2022/01/16 03:47:05;;;;;;;105.27;32.57;;;-3.50;99.90;;;;;;4361805;28;659382;-76
2022/01/16 03:49:53;;;;;;;88.67;30.87;;;-3.50;99.90;;;;;;4338114;28;660080;-76
2022/01/16 03:52:40;;;;;;;96.97;29.27;;;-3.60;99.90;;;;;;4343059;28;659471;-76
2022/01/16 03:55:27;;;;;;;88.30;27.53;;;-3.70;99.90;;;;;;4365387;28;658533;-76
2022/01/16 03:58:15;;;;;;;78.50;27.27;;;-3.70;99.90;;;;;;4343246;28;658718;-75
2022/01/16 04:01:02;;;;;;;89.77;27.07;;;-3.70;99.90;;;;;;4361840;28;659674;-76
2022/01/16 04:03:51;;;;;;;89.50;27.67;;;-3.70;99.90;;;;;;4342626;28;658438;-76
2022/01/16 04:06:39;;;;;;;75.20;27.77;;;-3.80;99.90;;;;;;4366151;28;658369;-76
2022/01/16 04:09:26;;;;;;;82.30;28.93;;;-3.80;99.90;;;;;;4343441;28;659607;-76
2022/01/16 04:12:20;;;;;;;97.87;29.73;;;-3.90;99.90;;;;;;4366195;28;659048;-75
2022/01/16 04:18:13;;;;;;;95.97;28.43;;;-3.90;99.90;;;;;;4341327;28;660542;-76
2022/01/16 04:21:02;;;;;;;78.27;26.37;;;-4.00;99.90;;;;;;4342870;28;658757;-76
2022/01/16 04:23:50;;;;;;;88.67;27.13;;;-4.00;99.90;;;;;;4350755;28;658907;-76
2022/01/16 04:26:38;;;;;;;83.57;27.40;;;-4.10;99.90;;;;;;4361649;28;659630;-76
2022/01/16 04:29:25;;;;;;;82.93;28.20;;;-4.10;99.90;;;;;;4342322;28;658556;-76
2022/01/16 04:32:13;;;;;;;81.43;28.30;;;-4.10;99.90;;;;;;4365192;28;659255;-76
2022/01/16 04:35:00;;;;;;;85.37;29.17;;;-4.20;99.90;;;;;;4342665;28;658718;-76
2022/01/16 04:37:49;;;;;;;85.90;28.70;;;-4.20;99.90;;;;;;4364138;28;659559;-76
2022/01/16 04:43:47;;;;;;;88.50;29.07;;;-4.20;99.90;;;;;;4338012;28;660507;-76
2022/01/16 04:43:48;;;;;;;90.57;31.83;;;-4.30;99.90;;;;;;4339117;28;659013;-76
2022/01/16 04:46:35;;;;;;;91.17;31.23;;;-4.30;99.90;;;;;;4341800;28;658568;-76
2022/01/16 04:49:23;;;;;;;101.63;33.10;;;-4.40;99.90;;;;;;4364125;28;659437;-76
2022/01/16 04:52:10;;;;;;;91.93;32.93;;;-4.40;99.90;;;;;;4340922;28;659949;-76
2022/01/16 04:55:00;;;;;;;91.07;32.63;;;-4.40;99.90;;;;;;4364805;28;658908;-76
2022/01/16 04:57:47;;;;;;;93.87;32.87;;;-4.40;99.90;;;;;;4346859;28;659308;-76
2022/01/16 05:00:35;;;;;;;95.00;31.88;;;-4.40;99.90;;;;;;4360225;28;658881;-76
2022/01/16 05:03:23;;;;;;;90.20;31.77;;;-4.50;99.90;;;;;;4380357;28;658208;-76
2022/01/16 05:06:11;;;;;;;97.23;31.23;;;-4.60;99.90;;;;;;4356827;28;658747;-76
2022/01/16 05:08:58;;;;;;;90.03;31.97;;;-4.60;99.90;;;;;;4375579;28;658808;-76
2022/01/16 05:11:54;;;;;;;92.63;32.13;;;-4.60;99.90;;;;;;4357179;28;658839;-75
2022/01/16 05:17:46;;;;;;;83.80;29.47;;;-4.60;99.90;;;;;;4332023;28;658514;-75
2022/01/16 05:20:34;;;;;;;86.77;28.53;;;-4.60;99.90;;;;;;4376020;28;658886;-76
2022/01/16 05:23:22;;;;;;;89.87;29.00;;;-4.70;99.90;;;;;;4352649;28;659657;-76
2022/01/16 05:26:09;;;;;;;87.47;30.63;;;-4.80;99.90;;;;;;4379439;28;658411;-76
2022/01/16 05:28:58;;;;;;;91.50;30.53;;;-4.70;99.90;;;;;;4351648;28;659837;-76
2022/01/16 05:31:46;;;;;;;96.03;27.80;;;-4.70;99.90;;;;;;4355633;28;659124;-76
2022/01/16 05:34:33;;;;;;;66.53;23.70;;;-4.70;99.90;;;;;;4374374;28;659943;-76
2022/01/16 05:37:21;;;;;;;73.40;26.27;;;-4.70;99.90;;;;;;4353130;28;658344;-76
2022/01/16 05:40:09;;;;;;;85.50;26.93;;;-4.70;99.90;;;;;;4375026;28;659575;-76
2022/01/16 05:42:56;;;;;;;77.60;25.40;;;-4.80;99.90;;;;;;4353485;28;658757;-76
2022/01/16 05:45:45;;;;;;;80.97;26.67;;;-4.80;99.90;;;;;;4374039;28;658793;-75
2022/01/16 05:48:33;;;;;;;106.72;33.13;;;-4.80;99.90;;;;;;4356157;28;659791;-76
2022/01/16 05:51:20;;;;;;;94.67;28.87;;;-4.80;99.90;;;;;;4354942;28;659432;-76
2022/01/16 05:54:08;;;;;;;152.10;40.73;;;-4.90;99.90;;;;;;4377515;28;658876;-76
2022/01/16 05:56:55;;;;;;;179.37;51.07;;;-4.90;99.90;;;;;;4355683;28;660310;-76
2022/01/16 05:59:43;;;;;;;183.50;52.87;;;-4.90;99.90;;;;;;4373659;28;661049;-76
2022/01/16 06:02:32;;;;;;;196.33;56.40;;;-5.00;99.90;;;;;;4356036;28;660218;-76
2022/01/16 06:05:20;;;;;;;189.17;53.87;;;-5.00;99.90;;;;;;4358844;28;660113;-76
2022/01/16 06:08:11;;;;;;;181.77;50.43;;;-5.00;99.90;;;;;;4358939;28;659939;-76
2022/01/16 06:10:58;;;;;;;181.97;47.17;;;-4.90;99.90;;;;;;4349863;28;660037;-76
2022/01/16 06:13:46;;;;;;;137.43;43.10;;;-4.90;99.90;;;;;;4354235;28;659841;-76
2022/01/16 06:16:35;;;;;;;116.40;37.30;;;-4.90;99.90;;;;;;4373507;28;659637;-76
2022/01/16 06:20:15;;;;;;;108.90;35.57;;;-4.90;99.90;;;;;;4354899;28;660731;-76
2022/01/16 06:23:04;;;;;;;119.80;35.07;;;-4.90;99.90;;;;;;4354745;28;659746;-76
2022/01/16 06:25:54;;;;;;;132.97;36.07;;;-4.90;99.90;;;;;;4354830;28;660264;-77
2022/01/16 06:28:42;;;;;;;134.30;38.93;;;-5.00;99.90;;;;;;4350736;28;660744;-76
2022/01/16 06:31:29;;;;;;;135.40;37.17;;;-5.00;99.90;;;;;;4372800;28;659615;-76
2022/01/16 06:34:16;;;;;;;148.33;39.17;;;-5.00;99.90;;;;;;4350639;28;660770;-77
2022/01/16 06:37:05;;;;;;;145.00;39.00;;;-5.00;99.90;;;;;;4377181;28;659798;-77
2022/01/16 06:39:53;;;;;;;145.13;38.00;;;-5.00;99.90;;;;;;4354280;28;659838;-76
2022/01/16 06:42:42;;;;;;;129.43;35.55;;;-5.00;99.90;;;;;;4354113;28;659744;-77
2022/01/16 06:45:30;;;;;;;129.37;35.93;;;-5.00;99.90;;;;;;4354971;28;659538;-77
2022/01/16 06:48:17;;;;;;;140.13;39.27;;;-5.00;99.90;;;;;;4373733;28;661296;-78
2022/01/16 06:51:05;;;;;;;146.27;41.07;;;-4.90;99.90;;;;;;4365700;28;659702;-77
2022/01/16 06:53:55;;;;;;;130.40;38.60;;;-4.90;99.90;;;;;;4377035;28;661064;-77
2022/01/16 06:56:44;;;;;;;105.97;33.50;;;-4.90;99.90;;;;;;4354336;28;660488;-77
2022/01/16 06:59:34;;;;;;;120.13;39.17;;;-4.90;99.90;;;;;;4349210;28;661220;-77
2022/01/16 07:02:22;;;;;;;133.37;39.50;;;-4.90;99.90;;;;;;4351007;28;660824;-77
2022/01/16 07:05:11;;;;;;;115.43;35.47;;;-4.80;99.90;;;;;;4363739;28;659936;-77
2022/01/16 07:07:58;;;;;;;136.67;39.97;;;-4.80;99.90;;;;;;4376459;28;659802;-77
2022/01/16 07:10:46;;;;;;;1511.43;107.80;;;-4.70;99.90;;;;;;4354103;28;659644;-77
2022/01/16 07:13:35;;;;;;;246.83;67.47;;;-4.70;99.90;;;;;;4374817;28;662001;-76
2022/01/16 07:16:22;;;;;;;281.33;75.50;;;-4.60;99.90;;;;;;4354719;28;660088;-77
2022/01/16 07:19:10;;;;;;;215.07;62.13;;;-4.50;99.90;;;;;;4357338;28;659709;-77
2022/01/16 07:21:58;;;;;;;226.30;64.97;;;-4.40;99.90;;;;;;4380273;28;660201;-77
2022/01/16 07:24:45;;;;;;;240.20;70.73;;;-4.30;99.90;;;;;;4357141;28;659757;-77
2022/01/16 07:27:33;;;;;;;246.63;73.70;;;-4.20;99.90;;;;;;4378981;28;659897;-77
2022/01/16 07:30:22;;;;;;;196.20;58.63;;;-4.10;99.90;;;;;;4343181;28;659836;-77
2022/01/16 07:33:09;;;;;;;192.43;58.17;;;-3.90;99.90;;;;;;4365117;28;660077;-77
2022/01/16 07:35:57;;;;;;;174.07;53.27;;;-3.80;99.90;;;;;;4338289;28;660959;-77
2022/01/16 07:38:45;;;;;;;203.60;61.00;;;-3.60;99.90;;;;;;4364759;28;659867;-77
2022/01/16 07:41:32;;;;;;;175.77;58.43;;;-3.40;99.90;;;;;;4342003;28;660674;-77
2022/01/16 07:44:20;;;;;;;198.43;63.17;;;-3.30;99.90;;;;;;4345118;28;660297;-77
2022/01/16 07:47:09;;;;;;;244.80;79.57;;;-3.20;99.90;;;;;;4361238;28;660433;-77
2022/01/16 07:49:56;;;;;;;279.03;93.77;;;-3.10;99.90;;;;;;4342325;28;661092;-77
2022/01/16 07:52:44;;;;;;;274.83;94.13;;;-2.90;99.90;;;;;;4360610;28;660340;-77
2022/01/16 07:55:32;;;;;;;296.90;103.27;;;-2.80;99.90;;;;;;4338660;28;660318;-77
2022/01/16 07:58:19;;;;;;;221.87;74.97;;;-2.70;99.90;;;;;;4362697;28;661442;-76
2022/01/16 08:01:07;;;;;;;247.07;85.97;;;-2.50;99.90;;;;;;4337541;28;660826;-77
2022/01/16 08:03:56;;;;;;;173.53;62.23;;;-2.40;99.90;;;;;;4364677;28;659239;-77
2022/01/16 08:06:43;;;;;;;134.80;49.63;;;-2.20;99.90;;;;;;4342312;28;659983;-77
2022/01/16 08:09:31;;;;;;;132.17;47.00;;;-2.00;99.90;;;;;;4341867;28;659819;-77
2022/01/16 08:12:18;;;;;;;152.70;53.90;;;-1.80;99.90;;;;;;4360676;28;660414;-77
2022/01/16 08:15:17;;;;;;;119.50;39.53;;;-1.50;99.90;;;;;;4341717;28;660027;-77
2022/01/16 08:18:07;;;;;;;100.73;36.73;;;-1.30;99.90;;;;;;4331478;28;660568;-78
2022/01/16 08:21:06;;;;;;;128.77;45.93;;;-1.10;99.90;;;;;;4364716;28;659297;-77
2022/01/16 08:23:53;;;;;;;84.00;34.70;;;-0.90;99.90;;;;;;4337627;28;660164;-77
2022/01/16 08:26:49;;;;;;;89.17;34.27;;;-0.80;99.90;;;;;;4342027;28;658606;-77
2022/01/16 08:29:40;;;;;;;81.18;30.65;;;-0.50;99.90;;;;;;4350988;28;659332;-77
2022/01/16 08:32:35;;;;;;;90.90;33.67;;;-0.30;99.90;;;;;;4353687;28;659405;-77
2022/01/16 08:35:33;;;;;;;84.60;33.50;;;-0.10;99.90;;;;;;4353560;28;659320;-77
2022/01/16 08:38:32;;;;;;;84.63;32.72;;;0.50;99.90;;;;;;4331248;28;660015;-78
2022/01/16 08:41:27;;;;;;;94.10;36.13;;;1.30;99.90;;;;;;4358844;28;657606;-77
2022/01/16 08:44:15;;;;;;;105.27;36.90;;;2.00;99.90;;;;;;4354987;28;657992;-78
2022/01/16 08:47:03;;;;;;;95.60;39.73;;;2.80;99.90;;;;;;4380652;28;659653;-76
2022/01/16 08:49:50;;;;;;;94.23;39.93;;;3.60;99.90;;;;;;4358510;28;657431;-79
2022/01/16 08:52:38;;;;;;;93.97;38.13;;;4.20;99.90;;;;;;4381542;28;658243;-77
2022/01/16 08:55:28;;;;;;;86.33;37.33;;;4.90;99.90;;;;;;4358348;28;657983;-77
2022/01/16 08:58:15;;;;;;;88.17;38.13;;;5.50;99.90;;;;;;4358601;28;657742;-78
2022/01/16 09:01:03;;;;;;;81.80;33.47;;;5.90;99.90;;;;;;4376789;28;658226;-77
2022/01/16 09:03:50;;;;;;;69.87;28.00;;;6.00;99.90;;;;;;4357733;28;657202;-78
2022/01/16 09:06:38;;;;;;;65.77;27.83;;;6.10;98.70;;;;;;4381339;28;658532;-77
2022/01/16 09:09:26;;;;;;;59.47;25.70;;;6.20;97.20;;;;;;4358425;28;657340;-78
2022/01/16 09:12:20;;;;;;;56.42;21.67;;;6.60;97.70;;;;;;4381038;28;658036;-78
2022/01/16 09:15:09;;;;;;;47.53;19.83;;;6.90;90.80;;;;;;4354129;28;657872;-77
2022/01/16 09:17:57;;;;;;;43.47;20.17;;;7.00;85.90;;;;;;4355136;28;659455;-78
2022/01/16 09:20:44;;;;;;;48.42;18.58;;;7.20;83.50;;;;;;4377004;28;657479;-78
2022/01/16 09:23:32;;;;;;;42.73;18.93;;;7.20;82.00;;;;;;4354859;28;659085;-77
2022/01/16 09:26:20;;;;;;;39.43;16.63;;;7.70;83.80;;;;;;4378569;28;657797;-77
2022/01/16 09:29:09;;;;;;;36.40;16.30;;;8.10;78.80;;;;;;4379744;28;658815;-77
2022/01/16 09:31:57;;;;;;;37.70;16.90;;;8.30;76.30;;;;;;4353897;28;658404;-78
2022/01/16 09:34:44;;;;;;;41.40;18.43;;;8.70;71.70;;;;;;4376246;28;658496;-78
2022/01/16 09:37:32;;;;;;;43.97;19.80;;;8.80;70.40;;;;;;4353870;28;658762;-78
2022/01/16 09:40:21;;;;;;;52.63;21.60;;;8.90;70.00;;;;;;4372447;28;657542;-77
2022/01/16 09:43:09;;;;;;;46.97;21.53;;;9.20;68.30;;;;;;4376561;28;657680;-78
2022/01/16 09:46:03;;;;;;;46.43;23.27;;;9.50;67.10;;;;;;4355766;28;658225;-77
2022/01/16 09:48:58;;;;;;;50.83;20.17;;;9.80;67.00;;;;;;4357868;28;658353;-77
2022/01/16 09:51:50;;;;;;;52.57;22.20;;;9.70;62.30;;;;;;4358156;28;657432;-77
2022/01/16 09:54:46;;;;;;;60.33;26.87;;;9.70;62.00;;;;;;4356946;28;659118;-77
2022/01/16 09:57:40;;;;;;;58.10;25.90;;;9.70;61.10;;;;;;4357202;28;657595;-77
2022/01/16 10:00:28;;;;;;;54.37;23.63;;;9.80;60.30;;;;;;4353597;28;658451;-77
2022/01/16 10:03:36;;;;;;;46.53;20.53;;;9.70;59.10;;;;;;4357314;28;657849;-78
2022/01/16 10:06:24;;;;;;;48.87;21.53;;;9.90;59.30;;;;;;4357769;28;658012;-78
2022/01/16 10:09:16;;;;;;;47.90;21.77;;;10.30;59.00;;;;;;4352679;28;659535;-77
2022/01/16 10:12:13;;;;;;;49.27;21.23;;;10.50;58.10;;;;;;4356107;28;659089;-77
2022/01/16 10:15:15;;;;;;;41.77;18.10;;;10.70;56.60;;;;;;4354553;28;658867;-78
2022/01/16 10:18:05;;;;;;;47.70;20.77;;;10.80;56.20;;;;;;4355125;28;658885;-78
2022/01/16 10:20:54;;;;;;;30.53;13.63;;;10.90;55.50;;;;;;4356180;28;659067;-77
2022/01/16 10:23:42;;;;;;;21.07;10.13;;;11.40;52.70;;;;;;4356121;28;658731;-80
2022/01/16 10:26:30;;;;;;;25.07;11.27;;;10.90;49.10;;;;;;4356017;28;658914;-79
2022/01/16 10:29:23;;;;;;;30.10;12.00;;;10.30;47.20;;;;;;4379264;28;659176;-77
2022/01/16 10:32:12;;;;;;;35.40;14.67;;;9.90;48.60;;;;;;4356340;28;659485;-77
2022/01/16 10:35:08;;;;;;;36.37;15.07;;;9.20;49.20;;;;;;4368896;28;657760;-79
2022/01/16 10:37:59;;;;;;;29.23;12.47;;;8.70;50.70;;;;;;4356833;28;657569;-79
2022/01/16 10:40:50;;;;;;;28.33;11.70;;;8.40;51.50;;;;;;4359287;28;657723;-80
2022/01/16 10:43:39;;;;;;;26.40;11.70;;;8.20;50.90;;;;;;4359546;28;658041;-78
2022/01/16 15:04:44;;;;;;;30.67;10.73;;;2.70;95.90;;;;;;3312655;28;657085;-75
2022/01/16 15:07:53;;;;;;;48.83;14.13;;;2.60;97.20;;;;;;4333207;28;658511;-75
2022/01/16 15:10:41;;;;;;;34.87;12.43;;;2.50;98.50;;;;;;4358779;28;657233;-75
2022/01/16 15:13:28;;;;;;;30.67;11.97;;;2.40;98.90;;;;;;4357899;28;658458;-75
2022/01/16 15:16:24;;;;;;;30.57;11.53;;;2.30;99.90;;;;;;4372828;28;657588;-75
2022/01/16 15:19:39;;;;;;;35.15;12.23;;;2.30;99.90;;;;;;4359868;28;657334;-75
2022/01/16 15:22:26;;;;;;;36.50;13.87;;;2.10;99.90;;;;;;4359670;28;657720;-75
2022/01/16 15:25:16;;;;;;;31.37;11.80;;;2.10;99.90;;;;;;4382992;28;657676;-75
2022/01/16 15:28:04;;;;;;;32.00;11.13;;;2.00;99.90;;;;;;4354346;28;657826;-74
2022/01/16 15:30:52;;;;;;;30.52;12.15;;;1.80;99.90;;;;;;4359550;28;658017;-75
2022/01/16 15:33:39;;;;;;;36.07;12.70;;;1.80;99.90;;;;;;4380417;28;657435;-74
2022/01/16 15:36:29;;;;;;;37.30;12.10;;;1.60;99.90;;;;;;4359637;28;657772;-76
2022/01/16 15:39:17;;;;;;;37.53;12.68;;;1.60;99.90;;;;;;4364887;28;658457;-77
2022/01/16 15:42:06;;;;;;;40.97;12.90;;;1.60;99.90;;;;;;4381300;28;657777;-76
2022/01/16 15:44:55;;;;;;;37.70;12.73;;;1.60;99.90;;;;;;4340462;28;658036;-76
2022/01/16 15:47:45;;;;;;;33.17;12.77;;;1.60;99.90;;;;;;4359792;28;658205;-77
2022/01/16 15:50:33;;;;;;;36.17;12.90;;;1.50;99.90;;;;;;4356153;28;658586;-76
2022/01/16 15:53:21;;;;;;;34.57;12.60;;;1.60;99.90;;;;;;4382564;28;657164;-77
2022/01/16 15:56:08;;;;;;;40.97;13.47;;;1.50;99.90;;;;;;4355343;28;658078;-75
2022/01/16 15:58:58;;;;;;;42.60;14.13;;;1.50;99.90;;;;;;4370600;28;657972;-75
2022/01/16 16:01:46;;;;;;;35.97;12.70;;;1.40;99.90;;;;;;4382202;28;657422;-75
2022/01/16 16:04:35;;;;;;;29.20;12.63;;;1.40;99.90;;;;;;4356755;28;658606;-76
2022/01/16 16:07:23;;;;;;;38.57;13.10;;;1.40;99.90;;;;;;4355393;28;658004;-76
2022/01/16 16:10:11;;;;;;;36.37;12.17;;;1.50;99.90;;;;;;4381622;28;657665;-75
2022/01/16 16:12:59;;;;;;;39.77;13.80;;;1.50;99.90;;;;;;4353002;28;659178;-75
2022/01/16 16:15:48;;;;;;;37.60;13.07;;;1.40;99.90;;;;;;4360068;28;657835;-75
2022/01/16 16:18:35;;;;;;;34.30;13.35;;;1.50;99.90;;;;;;4378062;28;657807;-76
2022/01/16 16:21:23;;;;;;;32.53;12.07;;;1.40;99.90;;;;;;4359122;28;658543;-73
2022/01/16 16:24:11;;;;;;;42.63;13.83;;;1.50;99.90;;;;;;4381184;28;657211;-75
2022/01/16 16:26:58;;;;;;;42.67;13.83;;;1.50;99.90;;;;;;4354861;28;659264;-76
2022/01/16 16:29:50;;;;;;;24.93;8.33;;;1.40;99.90;;;;;;4374569;28;657835;-78
2022/01/16 16:32:39;;;;;;;32.33;12.70;;;1.50;99.90;;;;;;4360183;28;656801;-75
2022/01/16 16:35:27;;;;;;;35.63;12.73;;;1.50;99.90;;;;;;4358180;28;657747;-76
2022/01/16 16:38:15;;;;;;;31.97;12.97;;;1.40;99.90;;;;;;4380808;28;657999;-76
2022/01/16 16:41:02;;;;;;;34.93;12.53;;;1.40;99.90;;;;;;4358439;28;657192;-75
2022/01/16 16:43:50;;;;;;;32.70;13.03;;;1.40;99.90;;;;;;4377532;28;657328;-75
2022/01/16 16:46:37;;;;;;;35.47;12.98;;;1.30;99.90;;;;;;4357865;28;658734;-78
2022/01/16 16:49:26;;;;;;;37.80;14.00;;;1.30;99.90;;;;;;4376885;28;657036;-75
2022/01/16 16:52:15;;;;;;;36.50;13.40;;;1.30;99.90;;;;;;4355575;28;658245;-76
2022/01/16 16:55:04;;;;;;;36.23;13.13;;;1.30;99.90;;;;;;4359185;28;658395;-76
2022/01/16 16:57:51;;;;;;;39.10;14.57;;;1.30;99.90;;;;;;4358670;28;657290;-76
2022/01/16 17:00:39;;;;;;;40.17;14.00;;;1.30;99.90;;;;;;4376995;28;658604;-76
2022/01/16 17:03:38;;;;;;;34.43;11.87;;;1.30;99.90;;;;;;4356938;28;658236;-77
2022/01/16 17:06:29;;;;;;;43.67;15.83;;;1.30;99.90;;;;;;4336796;28;657599;-74
2022/01/16 17:09:23;;;;;;;41.83;14.23;;;1.30;99.90;;;;;;4314578;28;657643;-76
2022/01/16 17:12:17;;;;;;;42.80;16.00;;;1.30;99.90;;;;;;4335177;28;657464;-76
2022/01/16 17:15:15;;;;;;;36.87;12.80;;;1.30;99.90;;;;;;4340383;28;658671;-76
2022/01/16 17:18:09;;;;;;;36.50;13.53;;;1.30;99.90;;;;;;4337339;28;657579;-76
2022/01/16 17:21:00;;;;;;;28.17;11.27;;;1.30;99.90;;;;;;4318556;28;657592;-76
2022/01/16 17:23:53;;;;;;;33.17;13.20;;;1.30;99.90;;;;;;4340626;28;657670;-75
2022/01/16 17:26:41;;;;;;;33.37;14.03;;;1.30;99.90;;;;;;4346972;28;657401;-76
2022/01/16 17:29:28;;;;;;;31.97;12.97;;;1.30;99.90;;;;;;4366991;28;657806;-76
2022/01/16 17:32:16;;;;;;;28.00;10.97;;;1.20;99.90;;;;;;4388567;28;657414;-76
2022/01/16 17:35:04;;;;;;;34.17;12.27;;;1.20;99.90;;;;;;4357931;28;658858;-75
2022/01/16 17:37:52;;;;;;;35.73;14.50;;;1.20;99.90;;;;;;4363510;28;657619;-75
2022/01/16 17:40:41;;;;;;;32.90;13.33;;;1.20;99.90;;;;;;4366624;28;658499;-74
2022/01/16 17:43:29;;;;;;;35.53;11.90;;;1.20;99.90;;;;;;4367523;28;658477;-76
2022/01/16 17:46:17;;;;;;;37.43;12.27;;;1.20;99.90;;;;;;4377704;28;657861;-78
2022/01/16 17:49:05;;;;;;;36.23;13.40;;;1.10;99.90;;;;;;4378877;28;658233;-77
2022/01/16 17:51:52;;;;;;;36.77;13.07;;;1.10;99.90;;;;;;4358668;28;657741;-76
2022/01/16 17:54:40;;;;;;;34.67;12.90;;;1.00;99.90;;;;;;4384106;28;658040;-76
2022/01/16 17:57:29;;;;;;;42.03;13.73;;;1.00;99.90;;;;;;4361486;28;657863;-76
2022/01/16 18:00:17;;;;;;;36.03;11.48;;;0.90;99.90;;;;;;4361225;28;658925;-77
2022/01/16 18:03:05;;;;;;;32.77;14.17;;;0.90;99.90;;;;;;4376033;28;658342;-76
2022/01/16 18:05:52;;;;;;;50.70;17.27;;;0.90;99.90;;;;;;4354092;28;657622;-77
2022/01/16 18:08:40;;;;;;;35.37;13.40;;;0.90;99.90;;;;;;4386519;28;658582;-75
2022/01/16 18:11:28;;;;;;;35.70;13.43;;;0.90;99.90;;;;;;4358861;28;657741;-72
2022/01/16 18:14:17;;;;;;;34.47;13.07;;;0.80;99.90;;;;;;4358370;28;657653;-76
2022/01/16 18:17:06;;;;;;;31.13;10.83;;;0.80;99.90;;;;;;4359133;28;658268;-75
2022/01/16 18:19:54;;;;;;;32.63;13.17;;;0.80;99.90;;;;;;4350255;28;658498;-76
2022/01/16 18:22:42;;;;;;;32.38;12.90;;;0.90;99.90;;;;;;4361294;28;658220;-76
2022/01/16 18:25:30;;;;;;;26.80;11.43;;;0.80;99.90;;;;;;4372465;28;658692;-76
2022/01/16 18:28:18;;;;;;;26.93;10.40;;;0.80;99.90;;;;;;4338527;28;658090;-72
2022/01/16 18:31:09;;;;;;;28.83;11.32;;;0.90;99.90;;;;;;4381364;28;657465;-67
2022/01/16 18:33:56;;;;;;;25.23;11.70;;;0.90;99.90;;;;;;4344479;28;657969;-75
2022/01/16 18:36:44;;;;;;;39.77;16.00;;;0.90;99.90;;;;;;4352981;28;658745;-78
2022/01/16 18:39:32;;;;;;;41.13;16.03;;;0.80;99.90;;;;;;4349203;28;657687;-71
2022/01/16 18:42:19;;;;;;;33.00;14.23;;;0.80;99.90;;;;;;4375268;28;658496;-76
2022/01/16 18:45:11;;;;;;;38.73;15.47;;;0.70;99.90;;;;;;4360185;28;657358;-76
2022/01/16 18:48:06;;;;;;;44.33;16.70;;;0.70;99.90;;;;;;4357712;28;659156;-76
2022/01/16 18:50:55;;;;;;;30.33;12.93;;;0.60;99.90;;;;;;4330469;28;658890;-78
2022/01/16 18:53:42;;;;;;;30.53;12.83;;;0.60;99.90;;;;;;4355756;28;657245;-77
2022/01/16 18:56:31;;;;;;;35.20;13.77;;;0.60;99.90;;;;;;4374841;28;658905;-76
2022/01/16 18:59:18;;;;;;;35.27;13.67;;;0.60;99.90;;;;;;4350060;28;657708;-75
2022/01/16 19:02:07;;;;;;;40.58;16.00;;;0.50;99.90;;;;;;4376601;28;659136;-75
2022/01/16 19:04:56;;;;;;;43.70;16.07;;;0.50;99.90;;;;;;4356722;28;658555;-77